Time;durP1;ratioP1;P1;durP2;ratioP2;P2;SDS_P1;SDS_P2;PMS_P1;PMS_P2;Temp;Humidity;BMP_temperature;BMP_pressure;BME280_temperature;BME280_humidity;BME280_pressure;Samples;Min_cycle;Max_cycle;Signal;HPM_P1;HPM_P2
2022/09/29 15:47:23;;;;;;;3.07;1.90;;;;;;;13.47;75.39;99500.91;1836821;77;22377;-80
2022/09/29 15:49:52;;;;;;;2.92;1.98;;;;;;;13.25;75.59;99506.67;1792365;79;21050;-83
2022/09/29 15:52:22;;;;;;;2.22;1.60;;;;;;;13.04;75.83;99504.89;1792352;80;21299;-83
2022/09/29 15:54:56;;;;;;;3.37;1.57;;;;;;;12.89;76.05;99517.20;1791863;79;21047;-78
2022/09/29 15:57:56;;;;;;;3.22;1.40;;;;;;;12.71;76.29;99518.66;1777465;80;21452;-85
2022/09/29 16:00:43;;;;;;;1.70;1.30;;;;;;;12.58;76.35;99518.17;1729613;81;21027;-84
2022/09/29 16:03:26;;;;;;;1.42;1.22;;;;;;;12.39;76.61;99514.50;1719179;81;21043;-87
2022/09/29 16:06:16;;;;;;;3.70;1.32;;;;;;;12.18;76.83;99520.05;1735277;81;21934;-84
2022/09/29 16:08:49;;;;;;;12.15;1.57;;;;;;;12.00;77.04;99523.27;1731748;81;21007;-82
2022/09/29 16:11:26;;;;;;;1.93;1.10;;;;;;;11.79;77.43;99523.97;1700947;81;21478;-81
2022/09/29 16:14:04;;;;;;;3.58;1.10;;;;;;;11.63;77.67;99531.00;1724631;81;21018;-81
2022/09/29 16:16:37;;;;;;;4.35;1.37;;;;;;;11.45;77.90;99536.80;1687491;83;21010;-86
2022/09/29 16:19:14;;;;;;;1.80;1.10;;;;;;;11.28;78.28;99537.72;1724878;81;22145;-83
2022/09/29 16:21:42;;;;;;;4.75;1.55;;;;;;;11.14;78.54;99542.83;1738067;81;21027;-75
2022/09/29 16:24:17;;;;;;;3.33;1.50;;;;;;;10.99;78.72;99543.19;1717224;81;21070;-80
2022/09/29 16:26:51;;;;;;;3.33;1.60;;;;;;;10.82;78.83;99544.53;1731748;81;21019;-85
2022/09/29 16:29:26;;;;;;;6.40;3.58;;;;;;;10.65;79.00;99542.31;1724949;81;21209;-81
2022/09/29 16:31:54;;;;;;;4.75;3.30;;;;;;;10.48;79.07;99548.41;1724713;81;21103;-80
2022/09/29 16:34:26;;;;;;;6.10;4.05;;;;;;;10.31;79.25;99557.58;1691884;83;21011;-76
2022/09/29 16:37:06;;;;;;;10.82;6.22;;;;;;;10.15;79.60;99562.67;1724833;81;21532;-77
2022/09/29 16:39:43;;;;;;;9.15;6.85;;;;;;;10.03;79.96;99561.94;1715623;83;21558;-76
2022/09/29 16:42:21;;;;;;;9.55;7.42;;;;;;;9.91;80.19;99563.85;1743405;81;21010;-76
2022/09/29 16:44:49;;;;;;;9.40;7.17;;;;;;;9.76;80.35;99570.20;1719597;83;21115;-76
2022/09/29 16:47:29;;;;;;;9.35;6.35;;;;;;;9.65;80.74;99572.94;1743179;81;21003;-77
2022/09/29 16:50:04;;;;;;;9.15;6.45;;;;;;;9.54;80.89;99578.20;1755357;81;21438;-78
2022/09/29 16:52:47;;;;;;;9.07;6.53;;;;;;;9.45;81.25;99585.17;1722202;83;21584;-77
2022/09/29 16:55:26;;;;;;;8.17;5.77;;;;;;;9.34;81.36;99587.42;1754773;81;21378;-78
2022/09/29 16:58:07;;;;;;;8.63;5.00;;;;;;;9.23;81.49;99588.33;1754612;81;21048;-78
2022/09/29 17:00:35;;;;;;;8.20;5.50;;;;;;;9.10;81.57;99594.58;1754166;81;21003;-74
2022/09/29 17:03:04;;;;;;;7.87;6.10;;;;;;;8.97;81.63;99596.86;1722148;83;21603;-81
2022/09/29 17:05:46;;;;;;;6.03;4.40;;;;;;;8.85;81.87;99606.09;1754210;81;20980;-72
2022/09/29 17:08:25;;;;;;;8.97;5.90;;;;;;;8.78;82.18;99609.02;1754527;81;20979;-74
2022/09/29 17:10:56;;;;;;;7.77;4.73;;;;;;;8.73;82.79;99613.58;1754654;81;21515;-72
2022/09/29 17:13:23;;;;;;;8.90;7.12;;;;;;;8.66;82.61;99617.77;1718705;83;21510;-72
2022/09/29 17:15:52;;;;;;;10.07;7.27;;;;;;;8.56;82.67;99620.81;1741919;81;21000;-73
2022/09/29 17:18:22;;;;;;;10.43;7.97;;;;;;;8.44;82.64;99624.33;1716799;83;20992;-81
2022/09/29 17:20:49;;;;;;;12.77;8.87;;;;;;;8.33;82.64;99625.19;1754195;81;21004;-78
2022/09/29 17:23:16;;;;;;;15.17;9.00;;;;;;;8.23;82.93;99626.02;1754585;81;21082;-84
2022/09/29 17:25:46;;;;;;;19.13;10.33;;;;;;;8.17;83.11;99634.07;1754240;81;21018;-75
2022/09/29 17:28:18;;;;;;;17.20;10.58;;;;;;;8.09;83.31;99640.05;1754573;81;21028;-83
2022/09/29 17:30:47;;;;;;;19.43;11.93;;;;;;;8.01;83.35;99643.44;1752706;81;20937;-84
2022/09/29 17:33:16;;;;;;;21.03;11.30;;;;;;;7.94;83.56;99645.88;1724535;83;21104;-78
2022/09/29 17:35:50;;;;;;;29.40;13.43;;;;;;;7.85;83.52;99647.08;1752593;81;21939;-75
2022/09/29 17:38:18;;;;;;;31.53;14.30;;;;;;;7.76;83.64;99651.31;1736895;81;21063;-79
2022/09/29 17:41:05;;;;;;;32.87;14.23;;;;;;;7.69;83.71;99653.78;1754193;81;21027;-78
2022/09/29 17:43:32;;;;;;;33.23;15.53;;;;;;;7.59;83.88;99655.43;1754501;81;22141;-75
2022/09/29 17:46:01;;;;;;;35.60;15.60;;;;;;;7.55;84.13;99666.02;1723883;83;21345;-82
2022/09/29 17:48:29;;;;;;;31.93;14.67;;;;;;;7.47;84.17;99662.38;1754018;81;21114;-74
2022/09/29 17:50:58;;;;;;;36.73;14.60;;;;;;;7.43;84.42;99665.14;1724084;83;20997;-81
2022/09/29 17:53:25;;;;;;;38.53;15.37;;;;;;;7.38;84.54;99654.44;1754180;81;20939;-75
2022/09/29 17:55:56;;;;;;;36.90;15.53;;;;;;;7.32;84.63;99664.25;1724210;83;21025;-74
2022/09/29 17:58:24;;;;;;;36.03;15.90;;;;;;;7.28;84.85;99668.70;1726621;81;21269;-74
2022/09/29 18:00:53;;;;;;;35.57;16.50;;;;;;;7.24;84.95;99671.02;1719989;81;21920;-75
2022/09/29 18:03:22;;;;;;;34.10;17.73;;;;;;;7.19;85.09;99665.58;1724027;81;21035;-74
2022/09/29 18:05:58;;;;;;;36.87;19.43;;;;;;;7.13;85.08;99664.03;1720704;81;21055;-74
2022/09/29 18:08:28;;;;;;;46.40;25.43;;;;;;;7.08;85.24;99665.48;1724081;81;20999;-77
2022/09/29 18:10:58;;;;;;;79.92;43.42;;;;;;;7.01;85.28;99668.34;1714758;81;21019;-80
2022/09/29 18:13:30;;;;;;;71.28;44.95;;;;;;;6.98;85.52;99668.45;1727059;81;21162;-75
2022/09/29 18:16:00;;;;;;;75.30;47.83;;;;;;;6.92;85.46;99666.91;1714543;81;21050;-79
2022/09/29 18:18:27;;;;;;;70.65;42.80;;;;;;;6.85;85.47;99670.64;1724439;81;21018;-74
2022/09/29 18:20:55;;;;;;;56.77;37.63;;;;;;;6.77;85.55;99670.04;1707418;81;21079;-74
2022/09/29 18:23:23;;;;;;;46.73;31.37;;;;;;;6.73;85.76;99667.13;1724267;81;21070;-74
2022/09/29 18:25:52;;;;;;;35.00;23.30;;;;;;;6.68;85.87;99672.50;1729424;81;21091;-76
2022/09/29 18:28:19;;;;;;;27.97;19.13;;;;;;;6.63;85.94;99670.03;1720661;81;21464;-79
2022/09/29 18:30:51;;;;;;;23.53;17.40;;;;;;;6.60;86.08;99670.14;1725683;81;21020;-74
2022/09/29 18:33:20;;;;;;;21.90;16.43;;;;;;;6.55;86.13;99672.49;1687404;81;21019;-73
2022/09/29 18:35:54;;;;;;;24.47;17.03;;;;;;;6.52;86.27;99669.98;1730383;81;21460;-73
2022/09/29 18:38:23;;;;;;;20.33;16.57;;;;;;;6.47;86.35;99669.67;1734013;81;21184;-77
2022/09/29 18:40:55;;;;;;;20.63;16.67;;;;;;;6.43;86.46;99666.78;1707398;81;21055;-73
2022/09/29 18:43:24;;;;;;;21.33;16.20;;;;;;;6.40;86.41;99667.30;1727451;81;20991;-74
2022/09/29 18:45:54;;;;;;;25.32;15.90;;;;;;;6.35;86.38;99675.28;1710006;81;21536;-74
2022/09/29 18:48:21;;;;;;;24.37;16.10;;;;;;;6.30;86.60;99672.42;1724253;81;21555;-74
2022/09/29 18:50:52;;;;;;;18.20;13.73;;;;;;;6.27;86.71;99677.27;1720819;81;21157;-77
2022/09/29 18:53:20;;;;;;;;;;;;;;;6.23;86.81;99680.84;1726698;81;21011;-74
2022/09/29 18:55:48;;;;;;;15.30;11.60;;;;;;;6.20;87.15;99678.34;1717204;82;20201;-80
2022/09/29 18:58:19;;;;;;;19.00;12.43;;;;;;;6.21;87.39;99682.21;1721058;81;21015;-74
2022/09/29 19:00:52;;;;;;;18.47;12.10;;;;;;;6.18;87.23;99681.01;1724471;81;21034;-74
2022/09/29 19:03:22;;;;;;;17.17;11.80;;;;;;;6.14;87.27;99683.73;1717657;81;21512;-74
2022/09/29 19:05:50;;;;;;;;;;;;;;;6.12;87.39;99685.07;1733581;81;20992;-74
2022/09/29 19:08:18;;;;;;;21.27;14.00;;;;;;;6.10;87.63;99680.39;1746582;80;20189;-75
2022/09/29 19:10:56;;;;;;;28.97;18.57;;;;;;;6.07;87.57;99682.20;1726764;81;21030;-74
2022/09/29 19:13:24;;;;;;;33.77;21.73;;;;;;;6.05;87.73;99684.03;1718981;81;21042;-77
2022/09/29 19:15:58;;;;;;;37.50;21.87;;;;;;;6.03;87.88;99686.20;1724403;81;21156;-76
2022/09/29 19:18:27;;;;;;;38.73;23.07;;;;;;;6.02;87.87;99692.31;1721366;81;21082;-79
2022/09/29 19:20:58;;;;;;;36.23;20.17;;;;;;;5.99;87.95;99691.56;1724387;81;21018;-74
2022/09/29 19:23:26;;;;;;;35.63;21.33;;;;;;;5.98;88.06;99693.28;1720936;81;21533;-74
2022/09/29 19:25:57;;;;;;;40.20;21.20;;;;;;;5.96;88.05;99696.41;1732923;81;21023;-74
2022/09/29 19:28:26;;;;;;;38.70;21.02;;;;;;;5.95;87.98;99699.03;1722748;83;21134;-74
2022/09/29 19:30:55;;;;;;;45.67;22.83;;;;;;;5.89;87.92;99701.34;1729309;81;21016;-79
2022/09/29 19:33:23;;;;;;;47.95;23.07;;;;;;;5.88;88.17;99704.00;1712480;81;21041;-75
2022/09/29 19:35:53;;;;;;;45.80;23.77;;;;;;;5.86;88.17;99714.44;1743315;81;21026;-77
2022/09/29 19:38:22;;;;;;;46.08;24.00;;;;;;;5.83;88.20;99717.13;1708378;81;21052;-74
2022/09/29 19:40:50;;;;;;;42.87;23.43;;;;;;;5.80;88.23;99721.96;1724088;81;21032;-73
2022/09/29 19:43:20;;;;;;;47.03;24.90;;;;;;;5.79;88.41;99724.59;1716282;81;21009;-73
2022/09/29 19:45:47;;;;;;;47.33;23.60;;;;;;;5.77;88.39;99727.70;1728497;81;20927;-73
2022/09/29 19:48:22;;;;;;;41.93;22.93;;;;;;;5.75;88.44;99728.19;1719389;81;21087;-76
2022/09/29 19:53:43;;;;;;;39.10;21.37;;;;;;;5.70;88.68;99730.06;1716384;82;21119;-73
2022/09/29 19:56:12;;;;;;;37.73;21.00;;;;;;;5.66;88.54;99731.91;1716008;82;21057;-74
2022/09/29 19:58:40;;;;;;;33.30;19.00;;;;;;;5.64;88.75;99734.98;1716108;82;21404;-74
2022/09/29 20:01:09;;;;;;;31.20;18.67;;;;;;;5.63;88.82;99731.14;1718076;80;21111;-79
2022/09/29 20:03:36;;;;;;;26.30;15.75;;;;;;;5.61;88.78;99726.42;1726361;80;21029;-74
2022/09/29 20:06:05;;;;;;;26.73;15.73;;;;;;;5.57;88.74;99722.61;1727991;80;21060;-78
2022/09/29 20:08:33;;;;;;;24.00;14.93;;;;;;;5.52;88.63;99728.38;1718872;80;20957;-79
2022/09/29 20:11:10;;;;;;;21.87;13.50;;;;;;;5.49;88.75;99730.22;1724360;81;21011;-79
2022/09/29 20:13:38;;;;;;;19.67;12.90;;;;;;;5.47;88.76;99735.89;1716595;81;21066;-79
2022/09/29 20:16:06;;;;;;;16.33;11.30;;;;;;;5.45;88.89;99737.22;1724201;81;21513;-74
2022/09/29 20:18:35;;;;;;;16.13;11.47;;;;;;;5.43;88.95;99732.53;1719086;81;21067;-75
2022/09/29 20:21:09;;;;;;;15.63;10.47;;;;;;;5.40;88.85;99743.44;1732146;81;20985;-73
2022/09/29 20:23:38;;;;;;;14.87;10.17;;;;;;;5.37;89.00;99743.06;1721338;81;20995;-74
2022/09/29 20:26:10;;;;;;;15.30;10.07;;;;;;;5.36;89.12;99748.72;1724181;81;21074;-76
2022/09/29 20:28:39;;;;;;;12.27;8.80;;;;;;;5.32;89.05;99744.51;1716065;81;21113;-74
2022/09/29 20:31:06;;;;;;;13.20;9.43;;;;;;;5.30;89.12;99752.78;1724360;81;21113;-73
2022/09/29 20:33:35;;;;;;;15.50;8.63;;;;;;;5.28;89.22;99746.77;1716790;81;21038;-74
2022/09/29 20:36:06;;;;;;;13.70;9.00;;;;;;;5.24;89.17;99751.65;1724717;81;21525;-74
2022/09/29 20:38:40;;;;;;;11.40;7.63;;;;;;;5.21;89.17;99754.75;1723064;81;21020;-73
2022/09/29 20:41:08;;;;;;;10.40;7.87;;;;;;;5.19;89.30;99756.10;1724622;81;20991;-74
2022/09/29 20:43:36;;;;;;;10.37;7.90;;;;;;;5.17;89.36;99753.98;1724116;81;21111;-74
2022/09/29 20:46:07;;;;;;;11.47;8.27;;;;;;;5.17;89.43;99753.13;1724361;81;21081;-78
2022/09/29 20:48:37;;;;;;;12.80;8.60;;;;;;;5.13;89.44;99761.01;1704388;81;20950;-74
2022/09/29 20:51:13;;;;;;;11.10;8.58;;;;;;;5.12;89.51;99759.28;1727304;81;21078;-77
2022/09/29 20:53:39;;;;;;;13.67;8.80;;;;;;;5.12;89.54;99767.53;1754194;81;20983;-78
2022/09/29 20:56:10;;;;;;;15.30;10.30;;;;;;;5.10;89.66;99756.34;1727161;83;21281;-78
2022/09/29 20:58:42;;;;;;;12.40;9.80;;;;;;;5.08;89.69;99751.63;1754690;81;20987;-76
2022/09/29 21:01:22;;;;;;;15.57;10.17;;;;;;;5.06;89.58;99759.89;1756618;81;21015;-78
2022/09/29 21:04:02;;;;;;;14.80;10.30;;;;;;;5.03;89.67;99768.61;1725814;83;21419;-78
2022/09/29 21:06:33;;;;;;;12.10;9.83;;;;;;;5.03;89.92;99771.66;1757525;81;21054;-76
2022/09/29 21:09:03;;;;;;;17.23;10.20;;;;;;;5.01;89.79;99764.34;1757158;81;22071;-77
2022/09/29 21:11:36;;;;;;;14.40;10.00;;;;;;;4.99;89.84;99770.02;1757464;81;21037;-78
2022/09/29 21:13:59;;;;;;;15.60;10.73;;;;;;;4.97;89.75;99769.22;1756441;81;21055;-77
2022/09/29 21:16:26;;;;;;;15.83;9.80;;;;;;;4.96;89.96;99772.27;1727323;83;20997;-78
2022/09/29 21:18:53;;;;;;;13.73;9.73;;;;;;;4.95;89.89;99776.19;1728884;82;21010;-75
2022/09/29 21:21:20;;;;;;;20.93;11.97;;;;;;;4.93;90.00;99787.89;1741078;81;21189;-78
2022/09/29 21:23:49;;;;;;;19.73;10.67;;;;;;;4.94;90.66;99793.52;1757169;81;20956;-78
2022/09/29 21:26:21;;;;;;;16.23;10.17;;;;;;;4.96;90.27;99806.45;1757473;81;21082;-74
2022/09/29 21:28:54;;;;;;;13.27;9.07;;;;;;;4.92;90.20;99805.22;1727131;83;21029;-73
2022/09/29 21:31:30;;;;;;;14.97;9.80;;;;;;;4.89;90.16;99809.20;1734864;82;20998;-77
2022/09/29 21:34:02;;;;;;;17.33;10.50;;;;;;;4.87;90.22;99798.43;1749982;81;21104;-73
2022/09/29 21:36:32;;;;;;;17.70;10.63;;;;;;;4.84;90.12;99805.84;1727286;83;21060;-78
2022/09/29 21:39:00;;;;;;;17.10;10.00;;;;;;;4.80;90.06;99800.33;1757508;81;20995;-78
2022/09/29 21:41:33;;;;;;;19.30;10.23;;;;;;;4.80;90.21;99796.89;1757487;81;20995;-77
2022/09/29 21:44:11;;;;;;;16.57;10.13;;;;;;;4.77;90.29;99801.70;1727095;83;21064;-79
2022/09/29 21:46:39;;;;;;;15.27;9.00;;;;;;;4.76;90.33;99805.61;1757195;81;22014;-78
2022/09/29 21:49:08;;;;;;;16.77;8.90;;;;;;;4.74;90.19;99807.38;1716762;83;21066;-75
2022/09/29 21:51:40;;;;;;;18.87;9.50;;;;;;;4.69;90.17;99817.44;1754309;81;21505;-77
2022/09/29 21:54:21;;;;;;;17.60;9.23;;;;;;;4.67;90.34;99823.10;1715688;83;21035;-77
2022/09/29 21:56:49;;;;;;;14.47;8.90;;;;;;;4.67;90.38;99823.10;1754584;81;21291;-78
2022/09/29 21:59:19;;;;;;;13.87;8.20;;;;;;;4.63;90.21;99824.08;1754210;81;21872;-78
2022/09/29 22:01:47;;;;;;;13.88;8.78;;;;;;;4.61;90.25;99829.73;1718885;83;21488;-72
2022/09/29 22:04:14;;;;;;;13.77;8.63;;;;;;;4.59;90.38;99822.87;1742051;81;20995;-76
2022/09/29 22:06:43;;;;;;;15.67;9.10;;;;;;;4.58;90.43;99826.36;1717846;83;21436;-78
2022/09/29 22:09:17;;;;;;;14.77;9.53;;;;;;;4.55;90.37;99835.06;1740155;81;21003;-72
2022/09/29 22:11:48;;;;;;;14.97;9.87;;;;;;;4.54;90.43;99842.42;1723366;83;21112;-77
2022/09/29 22:14:15;;;;;;;16.45;10.18;;;;;;;4.54;90.62;99833.78;1739870;81;20991;-77
2022/09/29 22:16:43;;;;;;;17.70;10.87;;;;;;;4.52;90.54;99832.54;1724349;83;21024;-77
2022/09/29 22:19:12;;;;;;;16.33;10.80;;;;;;;4.50;90.58;99835.60;1754243;81;21008;-77
2022/09/29 22:21:39;;;;;;;14.63;10.07;;;;;;;4.51;90.72;99836.45;1754488;81;21062;-77
2022/09/29 22:24:09;;;;;;;15.67;10.70;;;;;;;4.52;90.88;99830.36;1724219;83;21922;-78
2022/09/29 22:26:36;;;;;;;14.60;10.60;;;;;;;4.50;90.73;99834.75;1754530;81;21008;-74
2022/09/29 22:29:03;;;;;;;16.03;11.23;;;;;;;4.49;90.86;99837.80;1754235;81;20995;-77
2022/09/29 22:31:32;;;;;;;21.07;12.67;;;;;;;4.49;91.06;99840.39;1724477;83;21005;-76
2022/09/29 22:34:03;;;;;;;16.83;12.67;;;;;;;4.50;91.07;99840.80;1754025;81;21523;-76
2022/09/29 22:36:33;;;;;;;22.07;13.97;;;;;;;4.50;90.98;99843.84;1724246;83;22002;-72
2022/09/29 22:39:03;;;;;;;18.77;13.28;;;;;;;4.50;91.13;99847.73;1754202;81;24310;-72
2022/09/29 22:41:32;;;;;;;15.83;12.20;;;;;;;4.50;91.18;99849.88;1724357;83;21009;-76
2022/09/29 22:43:59;;;;;;;17.57;11.83;;;;;;;4.51;91.25;99859.80;1754251;81;21088;-76
2022/09/29 22:46:29;;;;;;;18.20;12.63;;;;;;;4.52;91.34;99865.40;1754687;81;21075;-78
2022/09/29 22:48:57;;;;;;;18.03;12.27;;;;;;;4.55;91.71;99862.77;1756379;81;21086;-78
2022/09/29 22:51:24;;;;;;;21.43;12.60;;;;;;;4.55;91.57;99861.02;1757324;81;20999;-77
2022/09/29 22:53:51;;;;;;;20.93;14.13;;;;;;;4.55;91.84;99862.31;1757095;81;21020;-77
2022/09/29 22:56:26;;;;;;;18.50;12.97;;;;;;;4.60;91.98;99863.08;1757364;81;20980;-77
2022/09/29 22:58:50;;;;;;;21.63;13.50;;;;;;;4.64;92.18;99861.27;1726522;83;21029;-75
2022/09/29 23:01:20;;;;;;;17.97;12.23;;;;;;;4.64;92.11;99856.08;1757458;81;21325;-76
2022/09/29 23:03:47;;;;;;;16.80;11.93;;;;;;;4.65;92.02;99853.88;1726949;83;20949;-78
2022/09/29 23:06:15;;;;;;;16.90;11.93;;;;;;;4.65;91.89;99859.06;1757070;81;21007;-76
2022/09/29 23:08:43;;;;;;;20.93;12.23;;;;;;;4.65;92.00;99862.96;1727347;83;20977;-77
2022/09/29 23:11:18;;;;;;;17.10;11.60;;;;;;;4.67;92.16;99863.79;1757155;81;21476;-77
2022/09/29 23:13:46;;;;;;;17.43;11.87;;;;;;;4.67;92.08;99858.15;1757395;81;21085;-76
2022/09/29 23:16:15;;;;;;;15.87;11.23;;;;;;;4.65;91.99;99866.85;1757054;81;21011;-76
2022/09/29 23:18:46;;;;;;;21.37;13.13;;;;;;;4.64;92.06;99866.01;1727297;83;21493;-78
2022/09/29 23:21:19;;;;;;;24.10;13.63;;;;;;;4.67;92.49;99868.53;1757132;81;21019;-77
2022/09/29 23:23:59;;;;;;;21.83;13.37;;;;;;;4.68;92.35;99865.07;1727261;83;21025;-79
2022/09/29 23:26:28;;;;;;;18.73;12.13;;;;;;;4.67;92.29;99867.69;1757411;81;21180;-75
2022/09/29 23:28:57;;;;;;;17.37;12.05;;;;;;;4.67;92.34;99867.69;1727275;83;23136;-77
2022/09/29 23:31:24;;;;;;;17.43;11.77;;;;;;;4.66;92.48;99867.28;1757188;81;20995;-77
2022/09/29 23:33:54;;;;;;;17.23;12.00;;;;;;;4.65;92.24;99868.16;1757386;81;21027;-79
2022/09/29 23:36:23;;;;;;;14.75;11.35;;;;;;;4.62;92.06;99861.73;1727173;83;21037;-78
2022/09/29 23:41:32;;;;;;;16.37;10.40;;;;;;;4.54;91.85;99870.97;1613617;88;21070;-79
2022/09/29 23:44:03;;;;;;;13.80;10.30;;;;;;;4.53;91.99;99871.02;1613730;88;21121;-77
2022/09/29 23:46:32;;;;;;;13.20;10.23;;;;;;;4.52;92.09;99868.88;1613701;88;21434;-77
2022/09/29 23:49:07;;;;;;;17.65;10.58;;;;;;;4.52;92.19;99872.77;1603740;88;21051;-78
2022/09/29 23:51:32;;;;;;;18.53;10.20;;;;;;;4.50;92.00;99871.94;1597622;89;21297;-79
2022/09/29 23:53:59;;;;;;;16.87;10.20;;;;;;;4.46;91.88;99875.46;1597869;89;21115;-78
2022/09/29 23:56:28;;;;;;;15.97;11.40;;;;;;;4.42;91.87;99873.83;1597663;89;21090;-72
2022/09/29 23:58:56;;;;;;;15.07;10.07;;;;;;;4.40;91.95;99876.44;1597746;89;21107;-77
